Time,TemperatureF,DewpointF,PressureIn,WindDirection,WindDirectionDegrees,WindSpeedMPH,WindSpeedGustMPH,Humidity,HourlyPrecipIn,Conditions,Clouds,dailyrainin,SoftwareType,DateUTC
2013-07-04 00:01:00,62.0,48.0,-100.00,ESE,117,0.0,2.0,60,0.00,,,-99.99,,2013-07-04 06:01:00,
2013-07-04 00:11:00,62.0,48.0,-100.00,ESE,117,0.0,2.0,60,0.00,,,-99.99,,2013-07-04 06:11:00,
2013-07-04 00:53:00,59.0,46.0,-100.00,ESE,122,3.0,4.0,62,0.00,,,-99.99,,2013-07-04 06:53:00,
2013-07-04 01:02:00,59.0,46.0,-100.00,ESE,122,3.0,4.0,62,0.00,,,-99.99,,2013-07-04 07:02:00,
2013-07-04 01:12:00,59.0,46.0,-100.00,ESE,122,3.0,4.0,62,0.00,,,-99.99,,2013-07-04 07:12:00,
2013-07-04 01:52:00,56.0,46.0,-100.00,ENE,72,1.0,1.0,69,0.00,,,-99.99,,2013-07-04 07:52:00,
2013-07-04 02:02:00,56.0,46.0,-100.00,ENE,72,1.0,1.0,69,0.00,,,-99.99,,2013-07-04 08:02:00,
2013-07-04 02:11:00,56.0,46.0,-100.00,ENE,72,1.0,1.0,69,0.00,,,-99.99,,2013-07-04 08:11:00,
2013-07-04 02:53:00,53.0,46.0,-100.00,SE,146,1.0,1.0,75,0.00,,,-99.99,,2013-07-04 08:53:00,
2013-07-04 03:02:00,53.0,46.0,-100.00,SE,146,1.0,1.0,75,0.00,,,-99.99,,2013-07-04 09:02:00,
2013-07-04 03:11:00,53.0,46.0,-100.00,SE,146,1.0,1.0,75,0.00,,,-99.99,,2013-07-04 09:11:00,
2013-07-04 03:52:00,51.0,45.0,-100.00,SE,146,3.0,4.0,80,0.00,,,-99.99,,2013-07-04 09:52:00,
2013-07-04 04:01:00,51.0,45.0,-100.00,SE,146,3.0,4.0,80,0.00,,,-99.99,,2013-07-04 10:01:00,
2013-07-04 04:11:00,51.0,45.0,-100.00,SE,146,3.0,4.0,80,0.00,,,-99.99,,2013-07-04 10:11:00,
2013-07-04 04:53:00,49.0,43.0,-100.00,SSE,149,3.0,4.0,81,0.00,,,-99.99,,2013-07-04 10:53:00,
2013-07-04 05:02:00,49.0,43.0,-100.00,SSE,149,3.0,4.0,81,0.00,,,-99.99,,2013-07-04 11:02:00,
2013-07-04 05:11:00,49.0,43.0,-100.00,SSE,149,3.0,4.0,81,0.00,,,-99.99,,2013-07-04 11:11:00,
2013-07-04 05:53:00,49.0,44.0,-100.00,SE,125,3.0,3.0,84,0.00,,,-99.99,,2013-07-04 11:53:00,
2013-07-04 06:01:00,49.0,44.0,-100.00,SE,125,3.0,3.0,84,0.00,,,-99.99,,2013-07-04 12:01:00,
2013-07-04 06:11:00,49.0,44.0,-100.00,SE,125,3.0,3.0,84,0.00,,,-99.99,,2013-07-04 12:11:00,
2013-07-04 07:02:00,48.0,44.0,-100.00,SE,124,2.0,3.0,86,0.00,,,-99.99,,2013-07-04 13:02:00,
2013-07-04 07:12:00,48.0,44.0,-100.00,SE,124,2.0,3.0,86,0.00,,,-99.99,,2013-07-04 13:12:00,
2013-07-04 07:53:00,54.0,46.0,-100.00,ESE,121,1.0,2.0,74,0.00,,,-99.99,,2013-07-04 13:53:00,
2013-07-04 08:02:00,54.0,46.0,-100.00,ESE,121,1.0,2.0,74,0.00,,,-99.99,,2013-07-04 14:02:00,
2013-07-04 08:11:00,54.0,46.0,-100.00,ESE,121,1.0,2.0,74,0.00,,,-99.99,,2013-07-04 14:11:00,
2013-07-04 09:02:00,62.0,50.0,-100.00,WNW,283,1.0,1.0,65,0.00,,,-99.99,,2013-07-04 15:02:00,
2013-07-04 09:11:00,62.0,50.0,-100.00,WNW,283,1.0,1.0,65,0.00,,,-99.99,,2013-07-04 15:11:00,
2013-07-04 09:52:00,68.0,46.0,-100.00,NNE,22,2.0,3.0,45,0.00,,,-99.99,,2013-07-04 15:52:00,
2013-07-04 10:02:00,68.0,46.0,-100.00,NNE,22,2.0,3.0,45,0.00,,,-99.99,,2013-07-04 16:02:00,
2013-07-04 10:11:00,68.0,46.0,-100.00,NNE,22,2.0,3.0,45,0.00,,,-99.99,,2013-07-04 16:11:00,
2013-07-04 10:52:00,73.0,45.0,-100.00,NE,43,1.0,3.0,37,0.00,,,-99.99,,2013-07-04 16:52:00,
2013-07-04 11:01:00,73.0,45.0,-100.00,NE,43,1.0,3.0,37,0.00,,,-99.99,,2013-07-04 17:01:00,
2013-07-04 11:11:00,73.0,45.0,-100.00,NE,43,1.0,3.0,37,0.00,,,-99.99,,2013-07-04 17:11:00,
2013-07-04 11:53:00,77.0,44.0,-100.00,West,260,5.0,10.0,31,-99.99,,,-99.99,,2013-07-04 17:53:00,
2013-07-04 12:01:00,77.0,44.0,-100.00,West,260,5.0,10.0,31,-99.99,,,-99.99,,2013-07-04 18:01:00,
2013-07-04 12:11:00,77.0,44.0,-100.00,West,260,5.0,10.0,31,-99.99,,,-99.99,,2013-07-04 18:11:00,
2013-07-04 12:52:00,78.0,48.0,-100.00,WSW,254,4.0,9.0,34,-99.99,,,-99.99,,2013-07-04 18:52:00,
2013-07-04 13:01:00,78.0,48.0,-100.00,WSW,254,4.0,9.0,34,-99.99,,,-99.99,,2013-07-04 19:01:00,
2013-07-04 13:11:00,78.0,48.0,-100.00,WSW,254,4.0,9.0,34,-99.99,,,-99.99,,2013-07-04 19:11:00,
2013-07-04 13:53:00,79.0,45.0,-100.00,WSW,245,8.0,13.0,30,-99.99,,,-99.99,,2013-07-04 19:53:00,
2013-07-04 14:01:00,79.0,45.0,-100.00,WSW,245,8.0,13.0,30,-99.99,,,-99.99,,2013-07-04 20:01:00,
2013-07-04 14:11:00,79.0,45.0,-100.00,WSW,245,8.0,13.0,30,-99.99,,,-99.99,,2013-07-04 20:11:00,
2013-07-04 14:53:00,81.0,46.0,-100.00,NW,305,7.0,13.0,29,-99.99,,,-99.99,,2013-07-04 20:53:00,
2013-07-04 15:01:00,81.0,46.0,-100.00,NW,305,7.0,13.0,29,-99.99,,,-99.99,,2013-07-04 21:01:00,
2013-07-04 15:11:00,81.0,46.0,-100.00,NW,305,7.0,13.0,29,-99.99,,,-99.99,,2013-07-04 21:11:00,
2013-07-04 15:53:00,80.0,46.0,-100.00,WSW,258,6.0,11.0,31,-99.99,,,-99.99,,2013-07-04 21:53:00,
2013-07-04 16:01:00,80.0,46.0,-100.00,WSW,258,6.0,11.0,31,-99.99,,,-99.99,,2013-07-04 22:01:00,
2013-07-04 16:11:00,80.0,46.0,-100.00,WSW,258,6.0,11.0,31,-99.99,,,-99.99,,2013-07-04 22:11:00,
2013-07-04 16:52:00,78.0,49.0,-100.00,WNW,302,5.0,9.0,36,-99.99,,,-99.99,,2013-07-04 22:52:00,
2013-07-04 17:01:00,78.0,49.0,-100.00,WNW,302,5.0,9.0,36,-99.99,,,-99.99,,2013-07-04 23:01:00,
2013-07-04 17:11:00,78.0,49.0,-100.00,WNW,302,5.0,9.0,36,-99.99,,,-99.99,,2013-07-04 23:11:00,
2013-07-04 17:52:00,76.0,47.0,-100.00,NW,314,13.0,27.0,36,-99.99,,,-99.99,,2013-07-04 23:52:00,
2013-07-04 18:01:00,76.0,47.0,-100.00,NW,314,13.0,27.0,36,-99.99,,,-99.99,,2013-07-05 00:01:00,
2013-07-04 18:11:00,76.0,47.0,-100.00,NW,314,13.0,27.0,36,-99.99,,,-99.99,,2013-07-05 00:11:00,
2013-07-04 18:52:00,63.0,48.0,-100.00,WNW,296,10.0,17.0,58,-99.99,,,-99.99,,2013-07-05 00:52:00,
2013-07-04 19:01:00,63.0,48.0,-100.00,WNW,296,10.0,17.0,58,-99.99,,,-99.99,,2013-07-05 01:01:00,
2013-07-04 19:11:00,63.0,48.0,-100.00,WNW,296,10.0,17.0,58,-99.99,,,-99.99,,2013-07-05 01:11:00,
2013-07-04 19:52:00,58.0,54.0,-100.00,South,191,3.0,6.0,87,-99.99,,,-99.99,,2013-07-05 01:52:00,
2013-07-04 20:02:00,58.0,54.0,-100.00,South,191,3.0,6.0,87,-99.99,,,-99.99,,2013-07-05 02:02:00,
2013-07-04 20:11:00,58.0,54.0,-100.00,South,191,3.0,6.0,87,-99.99,,,-99.99,,2013-07-05 02:11:00,
2013-07-04 20:52:00,60.0,53.0,-100.00,South,170,3.0,4.0,77,-99.99,,,-99.99,,2013-07-05 02:52:00,
2013-07-04 21:02:00,60.0,53.0,-100.00,South,170,3.0,4.0,77,-99.99,,,-99.99,,2013-07-05 03:02:00,
2013-07-04 21:11:00,60.0,53.0,-100.00,South,170,3.0,4.0,77,-99.99,,,-99.99,,2013-07-05 03:11:00,
2013-07-04 21:52:00,58.0,53.0,-100.00,SE,146,3.0,4.0,82,-99.99,,,-99.99,,2013-07-05 03:52:00,
2013-07-04 22:01:00,58.0,53.0,-100.00,SE,146,3.0,4.0,82,-99.99,,,-99.99,,2013-07-05 04:01:00,
2013-07-04 22:11:00,58.0,53.0,-100.00,SE,146,3.0,4.0,82,-99.99,,,-99.99,,2013-07-05 04:11:00,
2013-07-04 22:53:00,55.0,51.0,-100.00,West,270,0.0,0.0,88,-99.99,,,-99.99,,2013-07-05 04:53:00,
2013-07-04 23:01:00,55.0,51.0,-100.00,West,270,0.0,0.0,88,-99.99,,,-99.99,,2013-07-05 05:01:00,
2013-07-04 23:12:00,55.0,51.0,-100.00,West,270,0.0,0.0,88,-99.99,,,-99.99,,2013-07-05 05:12:00,
2013-07-04 23:52:00,51.0,49.0,-100.00,ESE,102,2.0,4.0,91,-99.99,,,-99.99,,2013-07-05 05:52:00,